Huvudsida
METAR-TAF:

METAR-TAF

Flygplatser :

Orsk, Ryssland

latitud: 51-04-18N, longitud: 058-35-48E, höjd: 277 m

Aktuellt väderrapport

Denna rapport gjordes för 55 minuter sedan, klockan 08:00 UTC
Vind 10 kt från nordväst
Temperatur 13°C
Fuktighet 47%
Tryck 1017 hPa
Sikt 10 km eller mer
Inga moln under 1 500 m eller inga cumulonimbus

METAR: UWOR 210800Z 32005MPS CAVOK 13/02 Q1017 R25/CLRD65 NOSIG RMK QFE739/0985

Tid: 13:55 (08:55 UTC)

Väderprognos

Denna rapport gjordes för 55 minuter sedan, klockan 08:00 UTC
Prognos gäller från 21 kl. 09 UTC till 21 kl. 18 UTC
Vind 12 kt från nordväst
Sikt 10 km eller mer
Brutna moln på en höjd av 2000 ft
Temporärt
från 21 kl. 09 UTC till 21 kl. 15 UTC
Vind 14 kt från nord i byarna ända upp till 23 kt
Blir
från 21 kl. 15 UTC till 21 kl. 17 UTC
Vind 6 kt från nord i byarna ända upp till 16 kt

TAF: UWOR 210800Z 2109/2118 32006MPS 9999 BKN020 TEMPO 2109/2115 35007G12MPS BECMG 2115/2117 36003G08MPS

Aktuella väderrapporter och prognoser från 4000 flygplatser (METAR- och TAF-rapporter).

De tillgängliga stationerna syns som gula och röda prickar på kartan.

För musen över prickarna för att se namnen på stationerna.

Klicka sedan för att få väderrapporter och prognoser.

För att ändra kartan: Klicka på de gröna knapparna med ett svart kors på för att zooma in; den gröna knappen med ett streck på för att zooma ut; eller på de gröna pilarna för angränsande kartor.


METAR-TAF: